ADDS METAR Data INFO
IDs: Format: Raw Decoded Include TAF

Data at: 0219 UTC 18 Jan 2018

KPVE 180155Z AUTO 00000KT 10SM CLR M10/M14 A3060 RMK A01
KPVE 180135Z AUTO 00000KT 10SM CLR M09/M14 A3061 RMK A01
KPVE 180115Z AUTO 00000KT 10SM CLR M09/M14 A3061 RMK A01
KPVE 180055Z AUTO 32004KT 10SM CLR M09/M14 A3062 RMK A01
KPVE 180035Z AUTO 32005KT 10SM CLR M08/M14 A3062 RMK A01
KPVE 180015Z AUTO 00000KT 10SM CLR M08/M14 A3062 RMK A01
KPVE 172355Z AUTO 31004KT 10SM CLR M08/M14 A3063 RMK A01
KPVE 172335Z AUTO 31004KT 10SM CLR M08/M14 A3063 RMK A01
KPVE 172315Z AUTO 32004KT 10SM CLR M07/M14 A3063 RMK A01
KPVE 172255Z AUTO 33006KT 10SM CLR M07/M13 A3063 RMK A01
KPVE 172235Z AUTO 33004KT 10SM CLR M06/M14 A3063 RMK A01
KPVE 172215Z AUTO 36004KT 10SM CLR M06/M13 A3064 RMK A01
KPVE 172155Z AUTO 34006KT 10SM CLR M06/M13 A3064 RMK A01
KPVE 172135Z AUTO 36005KT 10SM CLR M06/M14 A3064 RMK A01
KPVE 172115Z AUTO 01007KT 10SM CLR M06/M14 A3064 RMK A01
KPVE 172055Z AUTO 01006KT 10SM CLR M06/M14 A3064 RMK A01
KPVE 172035Z AUTO VRB06KT 10SM CLR M06/M13 A3065 RMK A01
KPVE 172015Z AUTO 33008KT 10SM CLR M06/M13 A3065 RMK A01
KPVE 171955Z AUTO 35006KT 10SM CLR M07/M13 A3065 RMK A01
KPVE 171935Z AUTO 31008KT 10SM CLR M07/M13 A3065 RMK A01
KPVE 171915Z AUTO VRB04G11KT 10SM CLR M07/M13 A3066 RMK A01
KPVE 171855Z AUTO 26007KT 240V310 10SM CLR M08/M13 A3067 RMK A01
KPVE 171835Z AUTO VRB03G12KT 10SM FEW023 M08/M13 A3067 RMK A01
KPVE 171815Z AUTO 24007KT 10SM SCT023 M08/M13 A3069 RMK A01
KPVE 171755Z AUTO 30004KT 10SM SCT020 M09/M14 A3070 RMK A01
KPVE 171735Z AUTO VRB05KT 10SM BKN020 M09/M14 A3071 RMK A01
KPVE 171715Z AUTO 00000KT 10SM BKN019 M10/M14 A3071 RMK A01
KPVE 171655Z AUTO 03004KT 10SM BKN018 M11/M15 A3071 RMK A01
KPVE 171635Z AUTO 34007KT 9SM BKN016 M11/M15 A3072 RMK A01
KPVE 171615Z AUTO VRB05KT 9SM OVC016 M11/M15 A3072 RMK A01
KPVE 171555Z AUTO 34007KT 8SM OVC015 M12/M15 A3072 RMK A01
KPVE 171535Z AUTO 03006KT 6SM HZ BKN015 M12/M15 A3071 RMK A01
KPVE 171515Z AUTO 01007KT 7SM OVC015 M12/M15 A3071 RMK A01
KPVE 171455Z AUTO 34010KT 4SM HZ OVC015 M12/M15 A3070 RMK A01
KPVE 171435Z AUTO 36007KT 3SM HZ OVC014 M12/M15 A3069 RMK A01
KPVE 171415Z AUTO 02006KT 4SM HZ OVC013 M13/M15 A3069 RMK A01
KPVE 171355Z AUTO 35006KT 6SM HZ OVC013 M13/M15 A3068 RMK A01
KPVE 171335Z AUTO VRB05G10KT 9SM OVC013 M13/M15 A3068 RMK A01
KPVE 171315Z AUTO 34007KT 10SM OVC012 M13/M15 A3068 RMK A01
KPVE 171255Z AUTO 34008KT 10SM OVC012 M13/M15 A3067 RMK A01
KPVE 171235Z AUTO 01008KT 9SM OVC012 M13/M15 A3067 RMK A01
KPVE 171215Z AUTO 35005KT 9SM OVC012 M13/M15 A3067 RMK A01
KPVE 171155Z AUTO 36004KT 10SM OVC012 M13/M15 A3066 RMK A01
KPVE 171135Z AUTO 36007KT 10SM OVC013 M13/M15 A3066 RMK A01
KPVE 171115Z AUTO 36006G12KT 10SM OVC013 M13/M16 A3066 RMK A01
KPVE 171055Z AUTO 36008KT 10SM OVC013 M13/M16 A3065 RMK A01
KPVE 171035Z AUTO 01006KT 10SM OVC015 M13/M16 A3065 RMK A01
KPVE 171015Z AUTO 01006KT 10SM OVC016 M13/M16 A3065 RMK A01
KPVE 170955Z AUTO 35006KT 10SM OVC016 M13/M16 A3065 RMK A01
KPVE 170935Z AUTO 34006KT 10SM OVC017 M14/M16 A3064 RMK A01
KPVE 170915Z AUTO 35005KT 9SM OVC017 M14/M17 A3064 RMK A01
KPVE 170855Z AUTO 34005KT 9SM OVC018 M14/M17 A3064 RMK A01
KPVE 170835Z AUTO 35006KT 10SM FEW010 FEW014 OVC019 M14/M17 A3064 RMK A01
KPVE 170815Z AUTO 36006KT 10SM OVC021 M14/M17 A3064 RMK A01
KPVE 170755Z AUTO 36005KT 10SM OVC021 M14/M17 A3064 RMK A01
KPVE 170735Z AUTO 35005KT 10SM FEW013 BKN021 OVC042 M15/M18 A3064 RMK A01
KPVE 170715Z AUTO 35004KT 10SM FEW011 BKN021 OVC029 M15/M18 A3064 RMK A01
KPVE 170655Z AUTO 34004KT 10SM FEW013 SCT019 OVC029 M15/M18 A3065 RMK A01
KPVE 170635Z AUTO 33004KT 10SM FEW013 SCT018 BKN024 M15/M18 A3065 RMK A01
KPVE 170615Z AUTO 33006KT 10SM OVC023 M14/M18 A3065 RMK A01
KPVE 170555Z AUTO 33005KT 10SM SCT025 SCT033 OVC040 M15/M18 A3065 RMK A01
KPVE 170535Z AUTO 00000KT 10SM FEW018 SCT026 BKN032 M16/M18 A3065 RMK A01
KPVE 170515Z AUTO 00000KT 10SM FEW019 BKN026 OVC031 M16/M18 A3065 RMK A01
KPVE 170455Z AUTO 00000KT 10SM FEW027 BKN033 OVC042 M16/M18 A3065 RMK A01
KPVE 170435Z AUTO 00000KT 10SM FEW028 BKN036 OVC043 M15/M19 A3066 RMK A01
KPVE 170415Z AUTO 35004KT 10SM SCT031 BKN038 OVC045 M15/M19 A3066 RMK A01
KPVE 170355Z AUTO 35004KT 10SM SCT037 BKN044 M15/M19 A3066 RMK A01
KPVE 170335Z AUTO 34006KT 10SM SCT038 M15/M19 A3066 RMK A01
KPVE 170315Z AUTO 33005KT 10SM FEW039 M14/M19 A3066 RMK A01
KPVE 170255Z AUTO 33007KT 10SM FEW040 M14/M19 A3066 RMK A01
KPVE 170235Z AUTO 34005KT 10SM FEW039 M14/M19 A3066 RMK A01
KPVE 170215Z AUTO 34004KT 10SM CLR M14/M19 A3066 RMK A01
KPVE 170155Z AUTO 33007KT 10SM CLR M13/M19 A3065 RMK A01
KPVE 170135Z AUTO 33007KT 10SM CLR M13/M19 A3065 RMK A01
KPVE 170115Z AUTO 33009KT 10SM CLR M13/M19 A3064 RMK A01
KPVE 170055Z AUTO 32008KT 10SM CLR M12/M19 A3064 RMK A01
KPVE 170035Z AUTO 33009G16KT 10SM FEW034 M12/M19 A3064 RMK A01
KPVE 170015Z AUTO 32008KT 10SM CLR M12/M18 A3062 RMK A01
KPVE 162355Z AUTO 32006KT 10SM CLR M11/M18 A3062 RMK A01
KPVE 162335Z AUTO 32007KT 10SM CLR M11/M18 A3062 RMK A01
KPVE 162315Z AUTO 30005KT 10SM CLR M11/M18 A3062 RMK A01
KPVE 162255Z AUTO 31006KT 10SM CLR M10/M18 A3062 RMK A01
KPVE 162235Z AUTO 31008KT 10SM CLR M09/M17 A3061 RMK A01
KPVE 162215Z AUTO 32009KT 10SM CLR M09/M17 A3061 RMK A01
KPVE 162155Z AUTO 30006G11KT 10SM CLR M09/M17 A3060 RMK A01
KPVE 162135Z AUTO 28009G14KT 10SM CLR M08/M16 A3060 RMK A01
KPVE 162115Z AUTO VRB05G14KT 10SM CLR M09/M16 A3060 RMK A01
KPVE 162055Z AUTO 32009KT 10SM CLR M08/M16 A3059 RMK A01
KPVE 162035Z AUTO 29005G11KT 10SM CLR M08/M16 A3059 RMK A01
KPVE 162015Z AUTO 31005G14KT 10SM CLR M08/M16 A3059 RMK A01
KPVE 161955Z AUTO 30007G13KT 10SM CLR M08/M15 A3059 RMK A01
KPVE 161935Z AUTO 32008KT 10SM CLR M09/M16 A3059 RMK A01
KPVE 161915Z AUTO 32008G13KT 10SM CLR M08/M15 A3059 RMK A01
KPVE 161855Z AUTO 32009KT 10SM CLR M09/M15 A3059 RMK A01
KPVE 161835Z AUTO 32011KT 10SM FEW030 M08/M15 A3059 RMK A01
KPVE 161815Z AUTO VRB05G10KT 10SM FEW030 M08/M15 A3060 RMK A01
KPVE 161755Z AUTO 31009KT 10SM CLR M09/M15 A3061 RMK A01
KPVE 161735Z AUTO 30006KT 10SM CLR M09/M16 A3062 RMK A01
KPVE 161715Z AUTO 35007KT 10SM CLR M09/M16 A3063 RMK A01
KPVE 161655Z AUTO VRB06G12KT 340V040 10SM SCT070 SCT120 M09/M15 A3063 RMK A01
KPVE 161635Z AUTO 36007G14KT 10SM FEW025 BKN070 OVC110 M10/M15 A3064 RMK A01
KPVE 161615Z AUTO 36007G12KT 10SM FEW019 SCT060 BKN110 M10/M14 A3064 RMK A01
KPVE 161555Z AUTO 33011KT 8SM FEW015 SCT020 BKN055 M10/M14 A3064 RMK A01
KPVE 161535Z AUTO 35009KT 7SM FEW019 FEW030 BKN055 M10/M14 A3064 RMK A01
KPVE 161515Z AUTO 34007KT 2SM HZ FEW010 FEW023 SCT028 M10/M13 A3064 RMK A01
KPVE 161455Z AUTO 32011KT 1 1/2SM HZ SCT004 SCT009 BKN025 M11/M13 A3063 RMK A01
KPVE 161435Z AUTO 33009KT 1 1/4SM HZ SCT010 SCT025 SCT029 M10/M13 A3063 RMK A01